createdAt,value
2022-08-07T00:00:36.125Z,99126.63
2022-08-07T00:03:07.129Z,99128.28
2022-08-07T00:05:36.170Z,99125.81
2022-08-07T00:08:04.827Z,99126.84
2022-08-07T00:10:31.876Z,99122.03
2022-08-07T00:13:03.197Z,99123.94
2022-08-07T00:15:46.797Z,99117.03
2022-08-07T00:18:24.500Z,99119.34
2022-08-07T00:21:03.448Z,99121.63
2022-08-07T00:23:36.821Z,99120.38
2022-08-07T00:26:13.182Z,99118.91
2022-08-07T00:28:46.196Z,99107.03
2022-08-07T00:31:22.183Z,99114.09
2022-08-07T00:33:48.778Z,99113.28
2022-08-07T00:36:16.911Z,99101.81
2022-08-07T00:38:43.681Z,99104.28
2022-08-07T00:41:14.766Z,99098.03
2022-08-07T00:44:00.445Z,99103.47
2022-08-07T00:46:30.044Z,99104.50
2022-08-07T00:49:02.158Z,99104.91
2022-08-07T00:51:56.730Z,99100.13
2022-08-07T00:54:19.636Z,99089.69
2022-08-07T00:56:49.929Z,99089.03
2022-08-07T00:59:17.784Z,99088.00
2022-08-07T01:01:48.401Z,99082.78
2022-08-07T01:04:24.538Z,99084.25
2022-08-07T01:06:51.588Z,99087.78
2022-08-07T01:09:35.623Z,99089.66
2022-08-07T01:12:29.005Z,99082.38
2022-08-07T01:14:57.130Z,99079.47
2022-08-07T01:17:29.960Z,99078.41
2022-08-07T01:20:04.858Z,99069.84
2022-08-07T01:22:33.155Z,99073.59
2022-08-07T01:25:00.771Z,99073.38
2022-08-07T01:27:32.274Z,99064.84
2022-08-07T01:30:01.125Z,99063.19
2022-08-07T01:32:30.111Z,99070.88
2022-08-07T01:34:58.140Z,99071.28
2022-08-07T01:37:25.744Z,99066.69
2022-08-07T01:39:54.751Z,99071.88
2022-08-07T01:42:38.373Z,99062.09
2022-08-07T01:45:09.777Z,99062.97
2022-08-07T01:48:20.504Z,99050.03
2022-08-07T01:50:28.797Z,99064.34
2022-08-07T01:52:59.080Z,99069.78
2022-08-07T01:55:36.379Z,99061.03
2022-08-07T01:58:27.203Z,99068.41
2022-08-07T02:01:09.962Z,99063.84
2022-08-07T02:03:50.491Z,99075.47
2022-08-07T02:06:31.679Z,99068.38
2022-08-07T02:09:04.313Z,99068.22
2022-08-07T02:25:18.358Z,99057.41
2022-08-07T02:27:56.681Z,99056.09
2022-08-07T02:30:24.344Z,99055.16
2022-08-07T02:33:08.893Z,99046.81
2022-08-07T02:36:29.684Z,99048.06
2022-08-07T02:38:31.579Z,99061.25
2022-08-07T02:41:03.878Z,99067.03
2022-08-07T02:43:35.203Z,99064.94
2022-08-07T02:46:06.400Z,99069.56
2022-08-07T02:48:35.440Z,99068.94
2022-08-07T02:51:28.852Z,99064.28
2022-08-07T02:53:58.304Z,99056.88
2022-08-07T02:56:31.443Z,99060.44
2022-08-07T02:59:01.968Z,99055.81
2022-08-07T03:01:36.462Z,99052.00
2022-08-07T03:04:14.002Z,99051.28
2022-08-07T03:06:48.284Z,99052.75
2022-08-07T03:09:44.625Z,99045.50
2022-08-07T03:12:06.616Z,99044.22
2022-08-07T03:14:36.317Z,99045.31
2022-08-07T03:17:04.865Z,99043.91
2022-08-07T03:19:37.045Z,99045.06
2022-08-07T03:22:07.061Z,99042.97
2022-08-07T03:24:34.769Z,99044.88
2022-08-07T03:27:06.159Z,99041.44
2022-08-07T03:29:49.393Z,99043.91
2022-08-07T03:32:22.816Z,99042.56
2022-08-07T03:35:01.190Z,99037.56
2022-08-07T03:37:46.032Z,99045.41
2022-08-07T03:40:20.278Z,99051.34
2022-08-07T03:42:50.088Z,99050.28
2022-08-07T03:45:30.426Z,99049.41
2022-08-07T03:48:02.225Z,99044.78
2022-08-07T03:50:31.314Z,99043.75
2022-08-07T03:53:02.746Z,99056.97
2022-08-07T03:55:52.991Z,99047.75
2022-08-07T03:59:05.609Z,99048.59
2022-08-07T04:01:11.111Z,99049.94
2022-08-07T04:03:53.304Z,99042.50
2022-08-07T04:06:37.577Z,99036.25
2022-08-07T04:09:15.753Z,99044.09
2022-08-07T04:12:23.990Z,99036.47
2022-08-07T04:14:37.312Z,99040.50
2022-08-07T04:17:29.374Z,99047.44
2022-08-07T04:19:55.631Z,99046.78
2022-08-07T04:22:28.841Z,99055.06
2022-08-07T04:24:58.834Z,99048.44
2022-08-07T04:27:29.004Z,99051.91
2022-08-07T04:30:11.861Z,99050.50
2022-08-07T04:32:58.188Z,99054.50
2022-08-07T04:35:25.780Z,99057.28
2022-08-07T04:38:03.939Z,99056.91
2022-08-07T04:40:52.143Z,99061.88
2022-08-07T04:44:12.271Z,99055.25
2022-08-07T04:47:04.742Z,99057.88
2022-08-07T04:50:11.346Z,99061.31
2022-08-07T04:52:51.100Z,99059.38
2022-08-07T04:58:09.900Z,99062.69
2022-08-07T04:58:33.763Z,99072.72
2022-08-07T05:01:30.209Z,99074.88
2022-08-07T05:04:12.510Z,99070.28
2022-08-07T05:06:51.231Z,99077.34
2022-08-07T05:09:42.948Z,99077.53
2022-08-07T05:12:15.592Z,99076.59
2022-08-07T05:15:04.434Z,99083.03
2022-08-07T05:17:52.045Z,99086.19
2022-08-07T05:20:26.836Z,99087.97
2022-08-07T05:23:02.092Z,99089.66
2022-08-07T05:25:54.533Z,99097.22
2022-08-07T05:28:23.126Z,99089.09
2022-08-07T05:30:56.844Z,99088.72
2022-08-07T05:33:28.381Z,99095.66
2022-08-07T05:35:56.700Z,99096.53
2022-08-07T05:38:59.634Z,99096.38
2022-08-07T05:41:16.780Z,99099.34
2022-08-07T05:44:12.736Z,99107.41
2022-08-07T05:46:38.662Z,99109.34
2022-08-07T05:49:11.680Z,99109.25
2022-08-07T05:51:41.213Z,99107.81
2022-08-07T05:54:31.537Z,99103.91
2022-08-07T05:56:58.853Z,99112.69
2022-08-07T05:59:28.064Z,99107.50
2022-08-07T06:02:00.934Z,99108.41
2022-08-07T06:04:30.253Z,99108.69
2022-08-07T06:07:03.776Z,99103.63
2022-08-07T06:10:03.184Z,99106.78
2022-08-07T06:12:27.887Z,99107.22
2022-08-07T06:15:05.371Z,99107.00
2022-08-07T06:17:37.825Z,99104.09
2022-08-07T06:20:12.393Z,99104.13
2022-08-07T06:23:02.347Z,99097.88
2022-08-07T06:25:54.492Z,99103.28
2022-08-07T06:28:28.058Z,99097.63
2022-08-07T06:30:56.449Z,99105.50
2022-08-07T06:33:26.063Z,99101.13
2022-08-07T06:36:13.380Z,99105.72
2022-08-07T06:38:59.143Z,99094.53
2022-08-07T06:41:58.829Z,99087.22
2022-08-07T06:44:39.789Z,99090.56
2022-08-07T06:47:10.188Z,99090.16
2022-08-07T06:49:51.971Z,99089.28
2022-08-07T06:52:32.023Z,99087.44
2022-08-07T06:55:34.546Z,99085.31
2022-08-07T06:58:00.013Z,99087.69
2022-08-07T07:00:36.723Z,99086.09
2022-08-07T07:03:10.736Z,99085.41
2022-08-07T07:06:05.214Z,99086.38
2022-08-07T07:08:31.050Z,99089.69
2022-08-07T07:11:00.999Z,99085.38
2022-08-07T07:13:41.666Z,99091.72
2022-08-07T07:16:30.440Z,99079.75
2022-08-07T07:19:37.316Z,99081.94
2022-08-07T07:22:11.882Z,99081.63
2022-08-07T07:24:42.930Z,99075.34
2022-08-07T07:27:19.381Z,99077.03
2022-08-07T07:30:08.933Z,99079.91
2022-08-07T07:32:40.282Z,99077.53
2022-08-07T07:35:10.936Z,99062.72
2022-08-07T07:37:47.451Z,99065.44
2022-08-07T07:40:19.612Z,99064.00
2022-08-07T07:42:53.841Z,99064.72
2022-08-07T07:46:37.036Z,99063.19
2022-08-07T07:48:35.428Z,99055.28
2022-08-07T07:51:07.840Z,99053.34
2022-08-07T07:53:51.873Z,99049.66
2022-08-07T07:56:30.024Z,99053.81
2022-08-07T07:59:01.534Z,99055.81
2022-08-07T08:02:01.888Z,99047.59
2022-08-07T08:04:19.548Z,99045.19
2022-08-07T08:06:53.335Z,99048.28
2022-08-07T08:09:24.152Z,99044.66
2022-08-07T08:12:02.336Z,99045.69
2022-08-07T08:14:36.658Z,99036.13
2022-08-07T08:17:32.284Z,99039.09
2022-08-07T08:20:18.311Z,99038.66
2022-08-07T08:23:08.493Z,99045.72
2022-08-07T08:25:58.031Z,99036.28
2022-08-07T08:28:38.540Z,99043.72
2022-08-07T08:31:15.939Z,99046.06
2022-08-07T08:33:49.453Z,99036.09
2022-08-07T08:36:30.128Z,99029.91
2022-08-07T08:38:59.881Z,99037.03
2022-08-07T08:41:57.469Z,99036.28
2022-08-07T08:45:13.041Z,99030.44
2022-08-07T08:48:01.695Z,99029.19
2022-08-07T08:50:39.600Z,99034.16
2022-08-07T08:53:38.754Z,99024.50
2022-08-07T08:56:11.460Z,99032.34
2022-08-07T08:59:06.309Z,99027.69
2022-08-07T09:02:00.328Z,99020.53
2022-08-07T09:04:41.560Z,99006.00
2022-08-07T09:07:34.195Z,99005.63
2022-08-07T09:10:25.352Z,99008.94
2022-08-07T09:13:14.726Z,98994.34
2022-08-07T09:16:20.309Z,98998.69
2022-08-07T09:18:58.523Z,98994.34
2022-08-07T09:21:58.202Z,98990.25
2022-08-07T09:24:55.975Z,98992.44
2022-08-07T09:28:00.001Z,98991.03
2022-08-07T09:30:36.833Z,98992.00
2022-08-07T09:33:41.190Z,98977.50
2022-08-07T09:36:37.196Z,98976.00
2022-08-07T09:39:53.035Z,98972.66
2022-08-07T09:42:23.078Z,98973.63
2022-08-07T09:47:24.152Z,98969.75
2022-08-07T09:48:11.774Z,98970.19
2022-08-07T09:50:56.028Z,98967.50
2022-08-07T09:53:25.589Z,98963.66
2022-08-07T09:56:37.713Z,98972.38
2022-08-07T09:59:21.638Z,98961.69
2022-08-07T10:02:05.147Z,98962.84
2022-08-07T10:04:58.565Z,98950.44
2022-08-07T10:07:53.461Z,98955.06
2022-08-07T10:11:59.418Z,98956.50
2022-08-07T10:14:11.142Z,98945.56
2022-08-07T10:16:59.701Z,98950.25
2022-08-07T10:19:43.487Z,98947.19
2022-08-07T10:22:38.264Z,98946.81
2022-08-07T10:25:22.858Z,98941.31
2022-08-07T10:28:14.307Z,98941.25
2022-08-07T10:31:18.699Z,98929.03
2022-08-07T10:34:05.867Z,98930.44
2022-08-07T10:36:58.894Z,98935.69
2022-08-07T10:40:02.631Z,98921.72
2022-08-07T10:42:37.095Z,98920.06
2022-08-07T10:45:19.418Z,98923.72
2022-08-07T10:48:13.413Z,98920.53
2022-08-07T10:50:50.336Z,98928.69
2022-08-07T10:53:44.526Z,98917.66
2022-08-07T10:56:33.584Z,98924.88
2022-08-07T10:59:21.291Z,98918.13
2022-08-07T11:02:05.249Z,98914.09
2022-08-07T11:05:24.433Z,98908.69
2022-08-07T11:08:29.227Z,98907.63
2022-08-07T11:11:06.060Z,98905.91
2022-08-07T11:14:44.866Z,98900.66
2022-08-07T11:16:39.295Z,98893.69
2022-08-07T11:19:14.040Z,98899.75
2022-08-07T11:21:58.786Z,98896.19
2022-08-07T11:24:46.283Z,98895.88
2022-08-07T11:28:02.405Z,98882.50
2022-08-07T11:30:41.390Z,98877.03
2022-08-07T11:33:18.895Z,98884.72
2022-08-07T11:36:25.185Z,98888.19
2022-08-07T11:39:06.981Z,98876.53
2022-08-07T11:42:00.214Z,98870.13
2022-08-07T11:44:52.706Z,98875.88
2022-08-07T11:47:53.571Z,98874.72
2022-08-07T11:50:44.467Z,98866.38
2022-08-07T11:53:43.207Z,98868.66
2022-08-07T11:56:56.168Z,98861.44
2022-08-07T12:00:11.063Z,98865.47
2022-08-07T12:02:52.561Z,98862.13
2022-08-07T12:05:47.420Z,98858.28
2022-08-07T12:08:26.110Z,98859.34
2022-08-07T12:11:21.451Z,98860.59
2022-08-07T12:14:11.833Z,98871.31
2022-08-07T12:16:46.531Z,98870.78
2022-08-07T12:19:22.137Z,98865.81
2022-08-07T12:22:38.590Z,98863.53
2022-08-07T12:26:06.042Z,98867.50
2022-08-07T12:28:37.637Z,98866.16
2022-08-07T12:31:23.603Z,98853.28
2022-08-07T12:34:00.607Z,98846.50
2022-08-07T12:36:33.024Z,98849.75
2022-08-07T12:39:09.283Z,98844.59
2022-08-07T12:41:53.594Z,98842.25
2022-08-07T12:44:21.576Z,98853.41
2022-08-07T12:47:01.354Z,98849.16
2022-08-07T12:49:51.623Z,98853.03
2022-08-07T12:52:58.604Z,98853.41
2022-08-07T12:55:41.408Z,98855.34
2022-08-07T12:58:28.031Z,98847.38
2022-08-07T13:01:14.617Z,98837.91
2022-08-07T13:04:04.821Z,98845.66
2022-08-07T13:06:36.414Z,98839.50
2022-08-07T13:10:28.454Z,98831.34
2022-08-07T13:12:56.068Z,98835.59
2022-08-07T13:15:47.684Z,98831.38
2022-08-07T13:18:31.221Z,98832.16
2022-08-07T13:21:13.063Z,98821.53
2022-08-07T13:24:00.738Z,98825.44
2022-08-07T13:26:46.224Z,98829.50
2022-08-07T13:29:23.543Z,98827.22
2022-08-07T13:32:23.536Z,98820.25
2022-08-07T13:34:55.258Z,98818.66
2022-08-07T13:37:32.004Z,98821.69
2022-08-07T13:40:36.371Z,98824.16
2022-08-07T13:43:11.730Z,98827.22
2022-08-07T13:46:11.577Z,98816.78
2022-08-07T13:48:34.664Z,98814.16
2022-08-07T13:51:27.050Z,98819.09
2022-08-07T13:54:16.545Z,98806.16
2022-08-07T13:56:59.462Z,98800.25
2022-08-07T13:59:31.262Z,98799.06
2022-08-07T14:02:15.035Z,98798.91
2022-08-07T14:04:54.978Z,98800.78
2022-08-07T14:07:30.595Z,98796.44
2022-08-07T14:22:00.529Z,98779.16
2022-08-07T14:24:09.248Z,98794.59
2022-08-07T14:26:51.207Z,98784.56
2022-08-07T14:30:05.562Z,98785.56
2022-08-07T14:32:24.899Z,98775.81
2022-08-07T14:34:53.991Z,98774.19
2022-08-07T14:37:35.226Z,98769.16
2022-08-07T14:40:17.944Z,98767.16
2022-08-07T14:43:01.471Z,98779.34
2022-08-07T14:45:49.982Z,98773.28
2022-08-07T14:48:20.792Z,98776.63
2022-08-07T14:50:51.375Z,98772.16
2022-08-07T14:56:13.133Z,98768.66
2022-08-07T14:58:54.917Z,98766.78
2022-08-07T15:01:42.751Z,98762.25
2022-08-07T15:04:18.172Z,98752.97
2022-08-07T15:06:47.589Z,98768.59
2022-08-07T15:09:59.949Z,98762.94
2022-08-07T15:12:09.788Z,98758.91
2022-08-07T15:14:59.288Z,98762.81
2022-08-07T15:17:54.557Z,98767.91
2022-08-07T15:20:32.692Z,98760.88
2022-08-07T15:23:20.615Z,98757.28
2022-08-07T15:25:53.441Z,98758.75
2022-08-07T15:32:01.161Z,98753.97
2022-08-07T15:34:05.844Z,98751.81
2022-08-07T15:37:04.087Z,98748.94
2022-08-07T15:39:56.568Z,98751.41
2022-08-07T15:42:43.839Z,98756.00
2022-08-07T15:45:58.296Z,98748.25
2022-08-07T15:48:35.485Z,98740.09
2022-08-07T15:51:11.996Z,98744.63
2022-08-07T15:53:52.823Z,98750.31
2022-08-07T15:56:24.590Z,98743.13
2022-08-07T15:58:57.761Z,98753.06
2022-08-07T16:01:39.435Z,98744.56
2022-08-07T16:04:15.583Z,98745.25
2022-08-07T16:06:52.461Z,98742.13
2022-08-07T16:09:41.092Z,98741.88
2022-08-07T16:13:01.213Z,98738.66
2022-08-07T16:15:57.366Z,98739.91
2022-08-07T16:18:49.679Z,98733.66
2022-08-07T16:22:05.820Z,98726.09
2022-08-07T16:24:55.043Z,98721.38
2022-08-07T16:27:40.599Z,98723.72
2022-08-07T16:30:31.690Z,98724.66
2022-08-07T16:34:03.016Z,98723.69
2022-08-07T16:36:23.038Z,98719.06
2022-08-07T16:39:40.372Z,98725.91
2022-08-07T16:42:23.507Z,98732.22
2022-08-07T16:46:47.546Z,98732.03
2022-08-07T16:49:04.285Z,98735.78
2022-08-07T16:52:01.295Z,98737.78
2022-08-07T16:54:54.221Z,98744.38
2022-08-07T16:58:03.510Z,98752.78
2022-08-07T17:00:29.648Z,98742.09
2022-08-07T17:03:57.890Z,98741.72
2022-08-07T17:06:41.084Z,98730.94
2022-08-07T17:10:07.049Z,98736.19
2022-08-07T17:12:35.088Z,98733.66
2022-08-07T17:15:15.580Z,98737.03
2022-08-07T17:17:46.512Z,98743.25
2022-08-07T17:20:32.888Z,98735.25
2022-08-07T17:23:16.921Z,98737.66
2022-08-07T17:25:59.372Z,98727.59
2022-08-07T17:28:56.495Z,98728.25
2022-08-07T17:31:44.183Z,98725.78
2022-08-07T17:35:02.717Z,98732.13
2022-08-07T17:38:06.260Z,98731.34
2022-08-07T17:40:50.683Z,98730.38
2022-08-07T17:44:01.511Z,98737.69
2022-08-07T17:46:37.857Z,98746.22
2022-08-07T17:49:39.356Z,98746.94
2022-08-07T17:52:17.900Z,98745.22
2022-08-07T17:54:53.689Z,98750.97
2022-08-07T17:57:59.207Z,98749.44
2022-08-07T18:00:34.691Z,98766.59
2022-08-07T18:04:04.461Z,98762.75
2022-08-07T18:06:42.968Z,98762.78
2022-08-07T18:09:18.622Z,98766.44
2022-08-07T18:12:28.622Z,98764.03
2022-08-07T18:15:08.462Z,98778.38
2022-08-07T18:18:45.045Z,98781.25
2022-08-07T18:21:42.238Z,98781.31
2022-08-07T18:24:41.108Z,98784.34
2022-08-07T18:27:25.352Z,98788.50
2022-08-07T18:30:31.366Z,98791.84
2022-08-07T18:33:29.006Z,98794.06
2022-08-07T18:36:14.065Z,98797.97
2022-08-07T18:38:57.069Z,98810.69
2022-08-07T18:41:53.124Z,98812.88
2022-08-07T18:44:31.665Z,98812.94
2022-08-07T18:47:10.925Z,98819.78
2022-08-07T18:50:39.139Z,98820.06
2022-08-07T18:53:39.567Z,98821.44
2022-08-07T18:56:34.208Z,98825.28
2022-08-07T18:59:47.669Z,98827.19
2022-08-07T19:02:34.015Z,98837.63
2022-08-07T19:06:02.596Z,98834.56
2022-08-07T19:08:52.208Z,98841.63
2022-08-07T19:11:35.633Z,98844.66
2022-08-07T19:14:17.026Z,98851.44
2022-08-07T19:17:05.783Z,98851.09
2022-08-07T19:19:48.828Z,98853.94
2022-08-07T19:22:30.329Z,98858.53
2022-08-07T19:25:06.415Z,98872.13
2022-08-07T19:28:57.423Z,98867.06
2022-08-07T19:31:05.416Z,98870.19
2022-08-07T19:33:33.596Z,98875.66
2022-08-07T19:36:08.657Z,98875.09
2022-08-07T19:38:52.492Z,98882.38
2022-08-07T19:41:44.239Z,98888.72
2022-08-07T19:44:21.141Z,98889.41
2022-08-07T19:46:55.633Z,98884.00
2022-08-07T19:49:58.578Z,98890.56
2022-08-07T19:52:28.538Z,98884.22
2022-08-07T19:54:57.371Z,98887.75
2022-08-07T19:58:02.926Z,98886.91
2022-08-07T20:00:29.301Z,98893.50
2022-08-07T20:03:01.791Z,98900.34
2022-08-07T20:06:00.102Z,98902.41
2022-08-07T20:08:27.328Z,98901.69
2022-08-07T20:11:01.728Z,98904.75
2022-08-07T20:13:41.939Z,98904.25
2022-08-07T20:16:15.854Z,98908.88
2022-08-07T20:19:00.116Z,98911.16
2022-08-07T20:21:41.759Z,98903.94
2022-08-07T20:24:24.071Z,98909.38
2022-08-07T20:26:58.400Z,98911.19
2022-08-07T20:29:49.574Z,98911.75
2022-08-07T20:32:26.200Z,98906.63
2022-08-07T20:35:10.880Z,98910.09
2022-08-07T20:37:55.536Z,98910.50
2022-08-07T20:40:33.002Z,98911.00
2022-08-07T20:43:02.381Z,98913.34
2022-08-07T20:45:33.418Z,98917.69
2022-08-07T20:48:29.010Z,98911.03
2022-08-07T20:51:00.098Z,98910.47
2022-08-07T20:54:04.171Z,98916.75
2022-08-07T20:56:16.497Z,98914.16
2022-08-07T20:58:50.268Z,98919.00
2022-08-07T21:01:21.115Z,98928.41
2022-08-07T21:04:18.694Z,98935.84
2022-08-07T21:06:46.554Z,98929.69
2022-08-07T21:09:24.304Z,98927.03
2022-08-07T21:11:57.019Z,98927.63
2022-08-07T21:14:34.254Z,98928.09
2022-08-07T21:18:01.110Z,98930.22
2022-08-07T21:20:04.482Z,98944.03
2022-08-07T21:22:38.375Z,98938.34
2022-08-07T21:25:20.084Z,98940.47
2022-08-07T21:28:10.235Z,98940.13
2022-08-07T21:30:56.719Z,98936.81
2022-08-07T21:33:41.766Z,98943.91
2022-08-07T21:36:11.899Z,98945.78
2022-08-07T21:39:05.546Z,98953.22
2022-08-07T21:42:02.700Z,98955.09
2022-08-07T21:44:53.895Z,98950.50
2022-08-07T21:47:50.127Z,98951.56
2022-08-07T21:50:25.134Z,98946.47
2022-08-07T21:53:09.891Z,98957.47
2022-08-07T21:55:42.472Z,98956.16
2022-08-07T21:58:12.275Z,98957.94
2022-08-07T22:01:02.942Z,98962.53
2022-08-07T22:04:03.645Z,98952.84
2022-08-07T22:06:45.015Z,98955.22
2022-08-07T22:09:16.338Z,98956.16
2022-08-07T22:12:04.784Z,98959.94
2022-08-07T22:15:03.187Z,98956.41
2022-08-07T22:18:14.325Z,98956.03
2022-08-07T22:20:54.480Z,98956.63
2022-08-07T22:23:28.279Z,98957.22
2022-08-07T22:26:23.015Z,98960.50
2022-08-07T22:29:01.796Z,98960.16
2022-08-07T22:31:59.744Z,98962.53
2022-08-07T22:34:35.652Z,98953.81
2022-08-07T22:38:04.225Z,98955.72
2022-08-07T22:40:29.685Z,98955.44
2022-08-07T22:43:03.188Z,98956.25
2022-08-07T22:46:21.938Z,98966.31
2022-08-07T22:49:07.808Z,98961.09
2022-08-07T22:51:52.023Z,98959.88
2022-08-07T22:54:40.433Z,98958.31
2022-08-07T22:57:50.547Z,98956.25
2022-08-07T23:00:57.682Z,98963.00
2022-08-07T23:03:58.942Z,98964.50
2022-08-07T23:06:50.001Z,98974.47
2022-08-07T23:10:06.535Z,98962.84
2022-08-07T23:13:06.632Z,98963.44
2022-08-07T23:16:06.157Z,98962.84
2022-08-07T23:19:48.114Z,98960.34
2022-08-07T23:22:36.468Z,98967.59
2022-08-07T23:25:18.931Z,98959.19
2022-08-07T23:28:22.618Z,98961.53
2022-08-07T23:31:42.868Z,98954.34
2022-08-07T23:34:37.253Z,98955.63
2022-08-07T23:37:22.554Z,98966.13
2022-08-07T23:40:26.044Z,98957.59
2022-08-07T23:43:16.751Z,98960.53
2022-08-07T23:46:28.708Z,98963.47
2022-08-07T23:49:26.224Z,98961.19
2022-08-07T23:53:11.815Z,98974.88
2022-08-07T23:55:53.697Z,98972.22
2022-08-07T23:59:10.419Z,98969.78
